createdAt,value
2018-12-02T00:00:32.689Z,97906.05
2018-12-02T00:03:02.266Z,97904.23
2018-12-02T00:05:30.565Z,97900.10
2018-12-02T00:07:59.022Z,97901.28
2018-12-02T00:10:27.682Z,97897.99
2018-12-02T00:12:56.027Z,97906.59
2018-12-02T00:15:26.359Z,97903.30
2018-12-02T00:17:59.093Z,97897.70
2018-12-02T00:20:27.523Z,97900.36
2018-12-02T00:22:56.035Z,97899.32
2018-12-02T00:25:24.406Z,97898.34
2018-12-02T00:27:54.867Z,97899.38
2018-12-02T00:30:25.253Z,97898.34
2018-12-02T00:32:53.685Z,97893.72
2018-12-02T00:35:22.058Z,97895.24
2018-12-02T00:37:51.635Z,97891.55
2018-12-02T00:40:20.760Z,97892.47
2018-12-02T00:42:50.220Z,97888.39
2018-12-02T00:45:19.670Z,97895.03
2018-12-02T00:47:48.190Z,97887.66
2018-12-02T00:50:18.229Z,97878.12
2018-12-02T00:52:47.671Z,97876.64
2018-12-02T00:55:19.307Z,97868.14
2018-12-02T00:57:47.817Z,97873.05
2018-12-02T01:00:16.803Z,97861.35
2018-12-02T01:02:46.106Z,97859.19
2018-12-02T01:05:15.676Z,97856.53
2018-12-02T01:07:44.044Z,97856.88
2018-12-02T01:10:21.417Z,97851.66
2018-12-02T01:12:51.104Z,97845.69
2018-12-02T01:15:20.591Z,97848.69
2018-12-02T01:17:49.088Z,97844.43
2018-12-02T01:20:20.406Z,97842.50
2018-12-02T01:22:48.760Z,97844.31
2018-12-02T01:25:17.225Z,97841.28
2018-12-02T01:27:46.223Z,97835.97
2018-12-02T01:30:29.202Z,97836.61
2018-12-02T01:32:57.665Z,97834.79
2018-12-02T01:35:26.007Z,97835.28
2018-12-02T01:37:54.451Z,97840.05
2018-12-02T01:40:23.806Z,97839.61
2018-12-02T01:42:53.939Z,97827.11
2018-12-02T01:45:25.112Z,97831.72
2018-12-02T01:47:54.458Z,97826.67
2018-12-02T01:50:24.570Z,97829.28
2018-12-02T01:52:55.850Z,97820.82
2018-12-02T01:55:24.265Z,97807.88
2018-12-02T01:57:52.794Z,97815.55
2018-12-02T02:00:25.425Z,97803.70
2018-12-02T02:02:54.390Z,97795.44
2018-12-02T02:05:23.521Z,97798.30
2018-12-02T02:07:51.933Z,97800.91
2018-12-02T02:10:24.297Z,97787.03
2018-12-02T02:12:52.812Z,97782.66
2018-12-02T02:15:21.383Z,97771.15
2018-12-02T02:17:49.748Z,97768.15
2018-12-02T02:20:25.593Z,97767.31
2018-12-02T02:22:54.101Z,97764.14
2018-12-02T02:25:24.142Z,97760.23
2018-12-02T02:27:54.916Z,97736.73
2018-12-02T02:30:25.282Z,97736.09
2018-12-02T02:32:53.632Z,97733.37
2018-12-02T02:35:23.025Z,97731.35
2018-12-02T02:37:53.528Z,97727.33
2018-12-02T02:40:22.916Z,97728.66
2018-12-02T02:42:51.361Z,97721.37
2018-12-02T02:45:19.697Z,97707.11
2018-12-02T02:47:48.037Z,97697.31
2018-12-02T02:50:19.380Z,97697.28
2018-12-02T02:52:48.929Z,97691.66
2018-12-02T02:55:17.458Z,97694.36
2018-12-02T02:57:46.001Z,97693.98
2018-12-02T03:00:16.477Z,97685.48
2018-12-02T03:02:44.945Z,97677.51
2018-12-02T03:05:13.984Z,97683.36
2018-12-02T03:07:42.339Z,97679.86
2018-12-02T03:10:17.671Z,97679.91
2018-12-02T03:12:47.093Z,97667.95
2018-12-02T03:15:16.343Z,97666.24
2018-12-02T03:17:44.912Z,97671.06
2018-12-02T03:20:15.156Z,97664.91
2018-12-02T03:22:44.531Z,97660.78
2018-12-02T03:25:14.983Z,97658.96
2018-12-02T03:27:43.394Z,97650.34
2018-12-02T03:30:13.115Z,97647.50
2018-12-02T03:32:41.695Z,97632.74
2018-12-02T03:35:13.221Z,97638.80
2018-12-02T03:37:41.600Z,97640.55
2018-12-02T03:40:16.373Z,97633.58
2018-12-02T03:42:44.790Z,97624.28
2018-12-02T03:45:14.352Z,97613.47
2018-12-02T03:47:42.719Z,97618.28
2018-12-02T03:50:18.637Z,97615.48
2018-12-02T03:52:47.190Z,97605.20
2018-12-02T03:55:15.579Z,97588.92
2018-12-02T03:57:43.965Z,97596.70
2018-12-02T04:00:18.261Z,97584.56
2018-12-02T04:02:46.655Z,97584.10
2018-12-02T04:05:16.058Z,97573.78
2018-12-02T04:07:44.473Z,97575.64
2018-12-02T04:10:16.584Z,97579.66
2018-12-02T04:12:45.572Z,97577.13
2018-12-02T04:15:16.773Z,97577.95
2018-12-02T04:17:45.939Z,97577.77
2018-12-02T04:20:16.751Z,97589.45
2018-12-02T04:22:45.771Z,97586.76
2018-12-02T04:25:16.200Z,97570.63
2018-12-02T04:27:44.685Z,97572.64
2018-12-02T04:30:16.907Z,97573.62
2018-12-02T04:32:45.674Z,97567.67
2018-12-02T04:35:16.137Z,97570.33
2018-12-02T04:37:44.593Z,97571.50
2018-12-02T04:40:13.618Z,97565.70
2018-12-02T04:42:42.016Z,97561.53
2018-12-02T04:45:13.208Z,97558.53
2018-12-02T04:47:41.787Z,97557.91
2018-12-02T04:50:13.210Z,97554.39
2018-12-02T04:52:41.629Z,97543.80
2018-12-02T04:55:10.497Z,97538.13
2018-12-02T04:57:38.979Z,97537.16
2018-12-02T05:00:09.397Z,97538.80
2018-12-02T05:02:37.849Z,97538.80
2018-12-02T05:05:08.641Z,97534.81
2018-12-02T05:07:37.268Z,97528.52
2018-12-02T05:10:09.513Z,97532.90
2018-12-02T05:12:38.145Z,97526.50
2018-12-02T05:15:07.977Z,97518.13
2018-12-02T05:17:36.278Z,97517.64
2018-12-02T05:20:05.275Z,97511.44
2018-12-02T05:22:33.591Z,97503.63
2018-12-02T05:25:02.079Z,97507.04
2018-12-02T05:27:30.437Z,97505.01
2018-12-02T05:29:58.827Z,97499.88
2018-12-02T05:32:27.234Z,97499.72
2018-12-02T05:34:55.591Z,97494.91
2018-12-02T05:37:23.993Z,97486.70
2018-12-02T05:39:52.457Z,97485.95
2018-12-02T05:42:26.285Z,97481.94
2018-12-02T05:44:54.648Z,97483.61
2018-12-02T05:47:22.969Z,97472.46
2018-12-02T05:49:51.383Z,97471.97
2018-12-02T05:52:19.743Z,97466.66
2018-12-02T05:54:48.062Z,97465.87
2018-12-02T05:57:16.433Z,97461.68
2018-12-02T05:59:44.717Z,97460.02
2018-12-02T06:02:13.076Z,97447.91
2018-12-02T06:04:41.574Z,97447.56
2018-12-02T06:07:10.048Z,97444.58
2018-12-02T06:09:38.436Z,97436.70
2018-12-02T06:12:06.781Z,97436.39
2018-12-02T06:14:35.144Z,97433.24
2018-12-02T06:17:03.550Z,97429.91
2018-12-02T06:19:31.843Z,97429.05
2018-12-02T06:22:00.377Z,97418.59
2018-12-02T06:24:28.729Z,97416.31
2018-12-02T06:26:57.086Z,97412.45
2018-12-02T06:29:25.392Z,97409.14
2018-12-02T06:31:53.726Z,97407.98
2018-12-02T06:34:22.079Z,97404.32
2018-12-02T06:36:50.400Z,97408.13
2018-12-02T06:39:18.781Z,97403.69
2018-12-02T06:41:47.078Z,97401.66
2018-12-02T06:44:15.405Z,97397.33
2018-12-02T06:46:43.728Z,97392.95
2018-12-02T06:49:12.127Z,97393.99
2018-12-02T06:51:40.557Z,97394.27
2018-12-02T06:54:09.005Z,97389.80
2018-12-02T06:56:37.364Z,97390.61
2018-12-02T06:59:21.553Z,97380.81
2018-12-02T07:01:54.740Z,97376.34
2018-12-02T07:04:27.677Z,97379.67
2018-12-02T07:06:56.322Z,97370.67
2018-12-02T07:09:24.743Z,97370.67
2018-12-02T07:11:53.102Z,97367.68
2018-12-02T07:14:21.441Z,97370.22
2018-12-02T07:16:49.803Z,97366.69
2018-12-02T07:19:39.839Z,97370.65
2018-12-02T07:22:11.261Z,97359.88
2018-12-02T07:24:40.442Z,97361.88
2018-12-02T07:27:08.913Z,97360.88
2018-12-02T07:29:37.217Z,97353.26
2018-12-02T07:32:06.326Z,97346.28
2018-12-02T07:34:34.851Z,97354.77
2018-12-02T07:37:07.118Z,97346.80
2018-12-02T07:39:49.541Z,97340.50
2018-12-02T07:42:18.009Z,97336.34
2018-12-02T07:44:46.626Z,97328.71
2018-12-02T07:47:15.189Z,97324.25
2018-12-02T07:49:43.714Z,97312.84
2018-12-02T07:52:12.281Z,97317.66
2018-12-02T07:54:41.020Z,97313.01
2018-12-02T07:57:09.441Z,97319.66
2018-12-02T07:59:39.403Z,97323.48
2018-12-02T08:02:07.746Z,97315.86
2018-12-02T08:04:36.114Z,97317.86
2018-12-02T08:07:04.606Z,97314.20
2018-12-02T08:09:33.002Z,97312.38
2018-12-02T08:12:01.389Z,97310.23
2018-12-02T08:14:30.121Z,97307.14
2018-12-02T08:16:58.454Z,97307.42
2018-12-02T08:19:26.861Z,97307.92
2018-12-02T08:21:55.348Z,97306.80
2018-12-02T08:24:23.988Z,97302.19
2018-12-02T08:26:52.369Z,97293.88
2018-12-02T08:29:20.770Z,97295.72
2018-12-02T08:31:49.190Z,97282.59
2018-12-02T08:34:17.533Z,97280.27
2018-12-02T08:36:45.847Z,97277.95
2018-12-02T08:39:14.372Z,97273.31
2018-12-02T08:41:42.987Z,97275.34
2018-12-02T08:44:11.341Z,97283.31
2018-12-02T08:46:39.763Z,97279.83
2018-12-02T08:49:08.223Z,97279.67
2018-12-02T08:51:36.550Z,97281.16
2018-12-02T08:54:04.958Z,97284.00
2018-12-02T08:56:33.305Z,97285.05
2018-12-02T08:59:01.622Z,97276.41
2018-12-02T09:01:30.018Z,97274.08
2018-12-02T09:03:58.381Z,97271.75
2018-12-02T09:06:26.695Z,97278.72
2018-12-02T09:08:55.156Z,97272.58
2018-12-02T09:11:23.577Z,97274.63
2018-12-02T09:13:52.015Z,97268.81
2018-12-02T09:16:20.489Z,97269.44
2018-12-02T09:18:48.925Z,97259.50
2018-12-02T09:21:17.388Z,97261.17
2018-12-02T09:23:47.498Z,97256.69
2018-12-02T09:26:14.281Z,97255.19
2018-12-02T09:28:43.136Z,97252.86
2018-12-02T09:31:11.820Z,97255.02
2018-12-02T09:33:40.397Z,97245.55
2018-12-02T09:36:09.251Z,97249.55
2018-12-02T09:38:37.921Z,97243.23
2018-12-02T09:41:06.713Z,97249.70
2018-12-02T09:43:35.948Z,97247.55
2018-12-02T09:46:04.400Z,97246.55
2018-12-02T09:48:33.076Z,97231.59
2018-12-02T09:51:04.706Z,97235.95
2018-12-02T09:53:40.628Z,97227.14
2018-12-02T09:56:12.545Z,97226.31
2018-12-02T09:58:43.655Z,97222.67
2018-12-02T10:01:15.313Z,97215.83
2018-12-02T10:03:49.983Z,97222.64
2018-12-02T10:06:21.723Z,97216.66
2018-12-02T10:08:54.103Z,97207.02
2018-12-02T10:11:26.500Z,97205.36
2018-12-02T10:13:59.790Z,97196.55
2018-12-02T10:16:32.031Z,97200.70
2018-12-02T10:19:00.530Z,97199.05
2018-12-02T10:21:32.233Z,97195.56
2018-12-02T10:24:03.433Z,97194.06
2018-12-02T10:26:37.150Z,97194.72
2018-12-02T10:29:09.902Z,97188.43
2018-12-02T10:31:41.779Z,97184.59
2018-12-02T10:34:10.892Z,97173.96
2018-12-02T10:36:47.887Z,97174.94
2018-12-02T10:42:24.056Z,97173.47
2018-12-02T10:44:52.685Z,97169.80
2018-12-02T10:47:23.911Z,97169.12
2018-12-02T10:49:57.615Z,97168.47
2018-12-02T10:52:29.773Z,97157.48
2018-12-02T10:55:03.213Z,97162.82
2018-12-02T10:57:32.057Z,97151.83
2018-12-02T11:00:06.722Z,97152.18
2018-12-02T11:02:41.931Z,97151.18
2018-12-02T11:05:15.734Z,97149.52
2018-12-02T11:07:48.524Z,97147.36
2018-12-02T11:10:22.560Z,97136.88
2018-12-02T11:12:51.162Z,97138.69
2018-12-02T11:15:25.848Z,97133.19
2018-12-02T11:17:57.423Z,97130.36
2018-12-02T11:20:30.297Z,97129.53
2018-12-02T11:23:02.832Z,97122.04
2018-12-02T11:25:41.438Z,97127.34
2018-12-02T11:28:15.021Z,97122.20
2018-12-02T11:30:50.626Z,97119.03
2018-12-02T11:33:25.579Z,97118.18
2018-12-02T11:35:58.823Z,97126.64
2018-12-02T11:38:30.039Z,97118.83
2018-12-02T11:41:05.861Z,97117.52
2018-12-02T11:43:41.037Z,97122.48
2018-12-02T11:46:14.883Z,97121.19
2018-12-02T11:48:46.456Z,97118.03
2018-12-02T11:51:18.094Z,97116.84
2018-12-02T11:53:51.230Z,97112.03
2018-12-02T11:56:23.254Z,97113.66
2018-12-02T11:58:52.943Z,97112.20
2018-12-02T12:01:24.986Z,97107.70
2018-12-02T12:03:54.824Z,97103.87
2018-12-02T12:06:23.209Z,97098.70
2018-12-02T12:08:51.685Z,97106.16
2018-12-02T12:11:20.218Z,97103.36
2018-12-02T12:13:48.637Z,97109.67
2018-12-02T12:16:17.125Z,97105.50
2018-12-02T12:18:45.604Z,97107.38
2018-12-02T12:21:14.069Z,97103.02
2018-12-02T12:23:42.457Z,97101.14
2018-12-02T12:26:10.844Z,97100.48
2018-12-02T12:28:39.229Z,97100.52
2018-12-02T12:31:08.828Z,97095.53
2018-12-02T12:33:37.193Z,97100.86
2018-12-02T12:36:05.997Z,97104.84
2018-12-02T12:38:34.454Z,97104.20
2018-12-02T12:41:03.945Z,97108.21
2018-12-02T12:43:34.485Z,97102.84
2018-12-02T12:46:03.440Z,97103.02
2018-12-02T12:48:32.005Z,97093.52
2018-12-02T12:51:00.468Z,97092.88
2018-12-02T12:53:29.119Z,97091.52
2018-12-02T12:55:57.885Z,97087.53
2018-12-02T12:58:26.223Z,97090.38
2018-12-02T13:00:54.694Z,97083.56
2018-12-02T13:03:23.061Z,97084.89
2018-12-02T13:05:51.630Z,97088.52
2018-12-02T13:08:20.124Z,97095.52
2018-12-02T13:10:48.453Z,97089.53
2018-12-02T13:13:16.924Z,97082.37
2018-12-02T13:15:45.320Z,97086.17
2018-12-02T13:18:13.729Z,97084.87
2018-12-02T13:20:51.795Z,97081.70
2018-12-02T13:23:20.299Z,97071.23
2018-12-02T13:25:48.762Z,97071.41
2018-12-02T13:28:17.189Z,97067.86
2018-12-02T13:30:45.822Z,97074.29
2018-12-02T13:33:14.346Z,97069.79
2018-12-02T13:35:42.669Z,97070.82
2018-12-02T13:38:11.112Z,97085.74
2018-12-02T13:40:40.883Z,97078.64
2018-12-02T13:43:18.832Z,97085.06
2018-12-02T13:45:47.889Z,97084.64
2018-12-02T13:48:16.248Z,97085.36
2018-12-02T13:50:44.665Z,97089.03
2018-12-02T13:53:13.102Z,97095.45
2018-12-02T13:55:41.510Z,97088.34
2018-12-02T13:58:09.808Z,97097.61
2018-12-02T14:00:39.877Z,97098.44
2018-12-02T14:03:09.513Z,97108.41
2018-12-02T14:05:40.872Z,97102.97
2018-12-02T14:08:09.347Z,97112.27
2018-12-02T14:10:37.743Z,97108.80
2018-12-02T14:13:15.359Z,97119.28
2018-12-02T14:16:03.045Z,97116.59
2018-12-02T14:18:38.218Z,97113.27
2018-12-02T14:21:07.062Z,97119.43
2018-12-02T14:23:36.232Z,97126.65
2018-12-02T14:26:11.617Z,97120.58
2018-12-02T14:28:43.053Z,97134.64
2018-12-02T14:31:11.650Z,97132.92
2018-12-02T14:33:40.010Z,97127.92
2018-12-02T14:36:08.358Z,97132.58
2018-12-02T14:38:36.769Z,97127.24
2018-12-02T14:41:05.512Z,97136.92
2018-12-02T14:43:33.902Z,97133.66
2018-12-02T14:46:02.308Z,97134.91
2018-12-02T14:48:30.656Z,97129.64
2018-12-02T14:50:59.065Z,97135.27
2018-12-02T14:53:27.440Z,97138.28
2018-12-02T14:55:55.809Z,97137.28
2018-12-02T14:58:24.165Z,97139.74
2018-12-02T15:00:52.579Z,97134.67
2018-12-02T15:03:21.002Z,97135.53
2018-12-02T15:05:49.432Z,97144.39
2018-12-02T15:08:17.831Z,97140.19
2018-12-02T15:10:46.189Z,97143.59
2018-12-02T15:13:14.544Z,97141.81
2018-12-02T15:15:42.849Z,97148.50
2018-12-02T15:18:11.261Z,97146.91
2018-12-02T15:20:39.601Z,97141.27
2018-12-02T15:23:07.989Z,97148.47
2018-12-02T15:25:36.345Z,97143.83
2018-12-02T15:28:04.745Z,97152.17
2018-12-02T15:30:33.094Z,97149.01
2018-12-02T15:33:01.481Z,97152.20
2018-12-02T15:35:29.798Z,97164.02
2018-12-02T15:37:58.154Z,97157.80
2018-12-02T15:40:26.478Z,97160.38
2018-12-02T15:42:55.029Z,97161.56
2018-12-02T15:45:23.618Z,97162.36
2018-12-02T15:47:52.095Z,97159.55
2018-12-02T15:50:22.637Z,97153.30
2018-12-02T15:52:51.487Z,97158.06
2018-12-02T15:55:27.293Z,97146.14
2018-12-02T15:57:55.884Z,97154.39
2018-12-02T16:00:26.601Z,97147.26
2018-12-02T16:02:55.046Z,97159.75
2018-12-02T16:05:23.472Z,97160.88
2018-12-02T16:07:51.856Z,97166.71
2018-12-02T16:10:20.242Z,97169.41
2018-12-02T16:12:49.829Z,97169.77
2018-12-02T16:15:20.473Z,97180.22
2018-12-02T16:17:49.894Z,97181.70
2018-12-02T16:20:25.405Z,97171.93
2018-12-02T16:22:53.850Z,97181.37
2018-12-02T16:25:22.260Z,97175.54
2018-12-02T16:27:50.741Z,97175.86
2018-12-02T16:30:19.990Z,97187.03
2018-12-02T16:32:50.408Z,97190.05
2018-12-02T16:35:19.178Z,97190.02
2018-12-02T16:37:48.930Z,97198.38
2018-12-02T16:40:20.737Z,97192.06
2018-12-02T16:42:49.316Z,97197.20
2018-12-02T16:45:18.516Z,97199.33
2018-12-02T16:47:48.162Z,97202.70
2018-12-02T16:50:23.095Z,97203.30
2018-12-02T16:52:52.694Z,97202.94
2018-12-02T16:55:23.269Z,97199.36
2018-12-02T16:57:54.463Z,97200.59
2018-12-02T17:00:25.397Z,97207.38
2018-12-02T17:02:53.750Z,97213.61
2018-12-02T17:05:22.056Z,97209.25
2018-12-02T17:07:50.398Z,97206.15
2018-12-02T17:10:18.902Z,97211.26
2018-12-02T17:12:48.302Z,97214.01
2018-12-02T17:15:16.652Z,97209.78
2018-12-02T17:17:45.085Z,97218.22
2018-12-02T17:20:15.136Z,97218.76
2018-12-02T17:22:44.151Z,97226.48
2018-12-02T17:25:13.542Z,97227.48
2018-12-02T17:27:43.257Z,97234.66
2018-12-02T17:30:44.739Z,97230.48
2018-12-02T17:33:13.127Z,97228.64
2018-12-02T17:35:41.431Z,97230.93
2018-12-02T17:38:09.981Z,97234.19
2018-12-02T17:40:38.556Z,97226.97
2018-12-02T17:43:09.657Z,97225.86
2018-12-02T17:45:38.134Z,97231.63
2018-12-02T17:48:06.969Z,97239.12
2018-12-02T17:50:35.503Z,97240.64
2018-12-02T17:53:03.978Z,97243.95
2018-12-02T17:55:32.443Z,97237.84
2018-12-02T17:58:00.939Z,97241.24
2018-12-02T18:00:29.791Z,97241.61
2018-12-02T18:02:59.924Z,97239.59
2018-12-02T18:05:31.221Z,97244.31
2018-12-02T18:07:59.727Z,97244.97
2018-12-02T18:10:28.243Z,97243.41
2018-12-02T18:12:56.863Z,97255.89
2018-12-02T18:15:25.232Z,97253.88
2018-12-02T18:17:53.751Z,97249.17
2018-12-02T18:20:22.200Z,97255.28
2018-12-02T18:22:50.601Z,97256.84
2018-12-02T18:25:19.494Z,97244.66
2018-12-02T18:27:47.960Z,97245.34
2018-12-02T18:30:21.697Z,97252.34
2018-12-02T18:32:51.813Z,97251.09
2018-12-02T18:35:33.404Z,97255.15
2018-12-02T18:38:08.378Z,97251.75
2018-12-02T18:40:37.355Z,97258.64
2018-12-02T18:43:06.939Z,97255.88
2018-12-02T18:45:35.359Z,97258.10
2018-12-02T18:48:03.862Z,97251.52
2018-12-02T18:50:32.173Z,97245.75
2018-12-02T18:53:00.678Z,97248.33
2018-12-02T18:55:29.217Z,97251.69
2018-12-02T18:57:58.101Z,97259.44
2018-12-02T19:00:31.784Z,97257.82
2018-12-02T19:03:00.475Z,97264.45
2018-12-02T19:05:29.197Z,97265.47
2018-12-02T19:07:57.781Z,97272.23
2018-12-02T19:10:27.389Z,97272.46
2018-12-02T19:12:55.817Z,97273.15
2018-12-02T19:15:24.565Z,97271.73
2018-12-02T19:17:53.057Z,97276.75
2018-12-02T19:20:23.296Z,97273.76
2018-12-02T19:22:53.105Z,97269.42
2018-12-02T19:25:23.378Z,97267.72
2018-12-02T19:27:51.900Z,97266.94
2018-12-02T19:30:20.321Z,97268.55
2018-12-02T19:32:48.848Z,97272.19
2018-12-02T19:35:22.927Z,97261.05
2018-12-02T19:37:52.957Z,97258.55
2018-12-02T19:40:21.411Z,97251.61
2018-12-02T19:42:49.695Z,97269.05
2018-12-02T19:45:19.279Z,97262.23
2018-12-02T19:47:48.541Z,97270.81
2018-12-02T19:50:18.103Z,97266.05
2018-12-02T19:52:46.755Z,97266.34
2018-12-02T19:55:15.547Z,97273.52
2018-12-02T19:57:46.449Z,97269.66
2018-12-02T20:00:22.277Z,97274.13
2018-12-02T20:02:50.690Z,97260.95
2018-12-02T20:05:19.028Z,97263.25
2018-12-02T20:07:52.051Z,97270.02
2018-12-02T20:10:22.099Z,97271.13
2018-12-02T20:12:50.387Z,97266.66
2018-12-02T20:15:18.773Z,97264.45
2018-12-02T20:17:47.256Z,97262.73
2018-12-02T20:20:23.092Z,97271.54
2018-12-02T20:22:51.948Z,97267.16
2018-12-02T20:25:21.647Z,97267.85
2018-12-02T20:27:50.992Z,97266.61
2018-12-02T20:30:20.563Z,97264.53
2018-12-02T20:32:49.038Z,97259.38
2018-12-02T20:35:17.473Z,97265.41
2018-12-02T20:37:45.782Z,97264.70
2018-12-02T20:40:21.933Z,97269.42
2018-12-02T20:42:50.949Z,97267.77
2018-12-02T20:45:19.568Z,97265.83
2018-12-02T20:47:47.870Z,97268.22
2018-12-02T20:50:17.349Z,97269.09
2018-12-02T20:52:46.121Z,97287.94
2018-12-02T20:55:17.006Z,97280.20
2018-12-02T20:57:45.503Z,97287.12
2018-12-02T21:00:17.005Z,97280.96
2018-12-02T21:02:49.369Z,97275.45
2018-12-02T21:05:23.389Z,97278.81
2018-12-02T21:07:52.068Z,97275.55
2018-12-02T21:10:20.645Z,97271.73
2018-12-02T21:12:48.978Z,97273.88
2018-12-02T21:15:17.430Z,97279.91
2018-12-02T21:17:45.798Z,97279.23
2018-12-02T21:20:14.122Z,97280.30
2018-12-02T21:22:42.519Z,97280.77
2018-12-02T21:25:16.405Z,97273.84
2018-12-02T21:27:44.891Z,97289.61
2018-12-02T21:30:19.574Z,97290.59
2018-12-02T21:32:47.924Z,97284.62
2018-12-02T21:35:16.572Z,97273.61
2018-12-02T21:37:45.346Z,97272.28
2018-12-02T21:40:14.800Z,97278.17
2018-12-02T21:42:43.165Z,97280.08
2018-12-02T21:45:13.571Z,97281.35
2018-12-02T21:47:44.374Z,97278.45
2018-12-02T21:50:15.444Z,97275.77
2018-12-02T21:52:43.740Z,97275.94
2018-12-02T21:55:12.121Z,97269.30
2018-12-02T21:57:40.457Z,97265.21
2018-12-02T22:00:15.542Z,97261.62
2018-12-02T22:02:43.971Z,97243.87
2018-12-02T22:05:12.435Z,97258.39
2018-12-02T22:07:41.055Z,97261.89
2018-12-02T22:10:12.221Z,97261.08
2018-12-02T22:12:40.550Z,97249.47
2018-12-02T22:15:09.398Z,97257.17
2018-12-02T22:17:37.834Z,97248.55
2018-12-02T22:20:10.680Z,97252.52
2018-12-02T22:22:39.079Z,97251.75
2018-12-02T22:25:09.535Z,97255.00
2018-12-02T22:27:37.897Z,97255.41
2018-12-02T22:30:08.644Z,97261.02
2018-12-02T22:32:37.033Z,97250.17
2018-12-02T22:35:07.674Z,97257.52
2018-12-02T22:37:35.988Z,97252.31
2018-12-02T22:40:07.690Z,97247.08
2018-12-02T22:42:36.054Z,97255.83
2018-12-02T22:45:04.857Z,97250.72
2018-12-02T22:47:33.174Z,97251.93
2018-12-02T22:50:01.505Z,97248.11
2018-12-02T22:52:29.862Z,97252.62
2018-12-02T22:54:58.322Z,97258.97
2018-12-02T22:57:26.716Z,97251.97
2018-12-02T22:59:54.993Z,97258.62
2018-12-02T23:02:27.326Z,97257.24
2018-12-02T23:04:55.639Z,97260.48
2018-12-02T23:07:24.055Z,97259.36
2018-12-02T23:09:52.383Z,97240.13
2018-12-02T23:12:20.727Z,97254.86
2018-12-02T23:14:49.057Z,97254.42
2018-12-02T23:17:20.126Z,97249.44
2018-12-02T23:19:48.460Z,97251.61
2018-12-02T23:22:16.808Z,97252.66
2018-12-02T23:24:45.149Z,97256.16
2018-12-02T23:27:13.509Z,97260.95
2018-12-02T23:29:41.886Z,97267.80
2018-12-02T23:32:10.309Z,97268.64
2018-12-02T23:34:38.605Z,97263.60
2018-12-02T23:37:07.043Z,97261.06
2018-12-02T23:39:35.493Z,97261.08
2018-12-02T23:42:03.849Z,97254.77
2018-12-02T23:44:32.222Z,97252.89
2018-12-02T23:47:00.621Z,97247.47
2018-12-02T23:49:29.018Z,97249.69
2018-12-02T23:51:57.404Z,97247.52
2018-12-02T23:54:25.765Z,97244.03
2018-12-02T23:56:54.245Z,97244.09
2018-12-02T23:59:22.585Z,97232.44
